sensor_id;sensor_type;location;lat;lon;timestamp;P1;durP1;ratioP1;P2;durP2;ratioP2
69912;SDS011;57198;52.082;5.108;2023-07-09T00:02:14;9.02;;;5.70;;
69912;SDS011;57198;52.082;5.108;2023-07-09T00:04:41;8.82;;;5.60;;
69912;SDS011;57198;52.082;5.108;2023-07-09T00:07:26;7.93;;;5.28;;
69912;SDS011;57198;52.082;5.108;2023-07-09T00:09:54;8.70;;;5.38;;
69912;SDS011;57198;52.082;5.108;2023-07-09T00:12:22;7.37;;;5.10;;
69912;SDS011;57198;52.082;5.108;2023-07-09T00:14:50;8.32;;;5.38;;
69912;SDS011;57198;52.082;5.108;2023-07-09T00:17:19;8.00;;;5.78;;
69912;SDS011;57198;52.082;5.108;2023-07-09T00:19:49;7.72;;;5.55;;
69912;SDS011;57198;52.082;5.108;2023-07-09T00:22:18;9.90;;;5.32;;
69912;SDS011;57198;52.082;5.108;2023-07-09T00:24:46;10.47;;;5.20;;
69912;SDS011;57198;52.082;5.108;2023-07-09T00:27:14;8.18;;;5.63;;
69912;SDS011;57198;52.082;5.108;2023-07-09T00:29:44;10.38;;;5.95;;
69912;SDS011;57198;52.082;5.108;2023-07-09T00:32:16;11.27;;;5.80;;
69912;SDS011;57198;52.082;5.108;2023-07-09T00:34:47;10.27;;;6.32;;
69912;SDS011;57198;52.082;5.108;2023-07-09T00:37:15;8.30;;;5.73;;
69912;SDS011;57198;52.082;5.108;2023-07-09T00:39:44;10.95;;;5.80;;
69912;SDS011;57198;52.082;5.108;2023-07-09T00:42:12;10.30;;;5.90;;
69912;SDS011;57198;52.082;5.108;2023-07-09T00:44:44;8.85;;;5.90;;
69912;SDS011;57198;52.082;5.108;2023-07-09T00:47:17;8.88;;;5.95;;
69912;SDS011;57198;52.082;5.108;2023-07-09T00:49:45;10.10;;;5.87;;
69912;SDS011;57198;52.082;5.108;2023-07-09T00:52:28;8.40;;;6.00;;
69912;SDS011;57198;52.082;5.108;2023-07-09T00:54:59;10.40;;;6.35;;
69912;SDS011;57198;52.082;5.108;2023-07-09T00:57:29;11.73;;;6.15;;
69912;SDS011;57198;52.082;5.108;2023-07-09T00:59:59;10.75;;;6.70;;
69912;SDS011;57198;52.082;5.108;2023-07-09T01:02:36;9.63;;;6.50;;
69912;SDS011;57198;52.082;5.108;2023-07-09T01:05:04;9.27;;;6.38;;
69912;SDS011;57198;52.082;5.108;2023-07-09T01:07:32;10.23;;;6.15;;
69912;SDS011;57198;52.082;5.108;2023-07-09T01:10:00;9.00;;;6.10;;
69912;SDS011;57198;52.082;5.108;2023-07-09T01:12:28;9.80;;;5.78;;
69912;SDS011;57198;52.082;5.108;2023-07-09T01:14:57;14.57;;;5.63;;
69912;SDS011;57198;52.082;5.108;2023-07-09T01:17:28;13.20;;;7.00;;
69912;SDS011;57198;52.082;5.108;2023-07-09T01:19:56;10.10;;;6.75;;
69912;SDS011;57198;52.082;5.108;2023-07-09T01:22:24;10.30;;;6.40;;
69912;SDS011;57198;52.082;5.108;2023-07-09T01:27:24;10.23;;;6.70;;
69912;SDS011;57198;52.082;5.108;2023-07-09T01:29:54;10.30;;;6.43;;
69912;SDS011;57198;52.082;5.108;2023-07-09T01:32:21;9.70;;;6.57;;
69912;SDS011;57198;52.082;5.108;2023-07-09T01:34:50;8.13;;;5.75;;
69912;SDS011;57198;52.082;5.108;2023-07-09T01:37:21;11.48;;;7.10;;
69912;SDS011;57198;52.082;5.108;2023-07-09T01:39:50;10.17;;;6.37;;
69912;SDS011;57198;52.082;5.108;2023-07-09T01:42:20;7.43;;;5.72;;
69912;SDS011;57198;52.082;5.108;2023-07-09T01:44:49;9.40;;;6.35;;
69912;SDS011;57198;52.082;5.108;2023-07-09T01:47:17;11.02;;;6.32;;
69912;SDS011;57198;52.082;5.108;2023-07-09T01:49:45;8.90;;;6.72;;
69912;SDS011;57198;52.082;5.108;2023-07-09T01:52:13;9.47;;;6.60;;
69912;SDS011;57198;52.082;5.108;2023-07-09T01:54:42;9.02;;;5.93;;
69912;SDS011;57198;52.082;5.108;2023-07-09T01:57:17;10.63;;;6.38;;
69912;SDS011;57198;52.082;5.108;2023-07-09T01:59:45;9.65;;;6.30;;
69912;SDS011;57198;52.082;5.108;2023-07-09T02:02:13;10.63;;;6.95;;
69912;SDS011;57198;52.082;5.108;2023-07-09T02:04:46;11.37;;;6.77;;
69912;SDS011;57198;52.082;5.108;2023-07-09T02:07:14;8.85;;;5.85;;
69912;SDS011;57198;52.082;5.108;2023-07-09T02:09:42;9.30;;;6.90;;
69912;SDS011;57198;52.082;5.108;2023-07-09T02:12:10;11.85;;;6.85;;
69912;SDS011;57198;52.082;5.108;2023-07-09T02:14:38;9.50;;;7.30;;
69912;SDS011;57198;52.082;5.108;2023-07-09T02:17:05;10.33;;;7.43;;
69912;SDS011;57198;52.082;5.108;2023-07-09T02:19:33;12.40;;;8.27;;
69912;SDS011;57198;52.082;5.108;2023-07-09T02:22:00;13.00;;;8.55;;
69912;SDS011;57198;52.082;5.108;2023-07-09T02:24:28;13.60;;;8.50;;
69912;SDS011;57198;52.082;5.108;2023-07-09T02:26:56;14.55;;;8.20;;
69912;SDS011;57198;52.082;5.108;2023-07-09T02:29:24;13.70;;;9.10;;
69912;SDS011;57198;52.082;5.108;2023-07-09T02:31:52;11.55;;;8.07;;
69912;SDS011;57198;52.082;5.108;2023-07-09T02:34:20;13.65;;;8.32;;
69912;SDS011;57198;52.082;5.108;2023-07-09T02:36:52;15.07;;;8.30;;
69912;SDS011;57198;52.082;5.108;2023-07-09T02:39:20;13.20;;;9.13;;
69912;SDS011;57198;52.082;5.108;2023-07-09T02:41:47;11.23;;;8.43;;
69912;SDS011;57198;52.082;5.108;2023-07-09T02:44:15;12.52;;;7.78;;
69912;SDS011;57198;52.082;5.108;2023-07-09T02:46:43;11.70;;;8.65;;
69912;SDS011;57198;52.082;5.108;2023-07-09T02:49:11;11.68;;;8.40;;
69912;SDS011;57198;52.082;5.108;2023-07-09T02:51:39;12.57;;;8.60;;
69912;SDS011;57198;52.082;5.108;2023-07-09T02:54:07;11.60;;;9.40;;
69912;SDS011;57198;52.082;5.108;2023-07-09T02:56:34;11.85;;;8.65;;
69912;SDS011;57198;52.082;5.108;2023-07-09T02:59:02;11.95;;;8.73;;
69912;SDS011;57198;52.082;5.108;2023-07-09T03:01:30;13.55;;;8.90;;
69912;SDS011;57198;52.082;5.108;2023-07-09T03:04:00;15.73;;;9.30;;
69912;SDS011;57198;52.082;5.108;2023-07-09T03:06:31;12.40;;;8.90;;
69912;SDS011;57198;52.082;5.108;2023-07-09T03:09:02;13.00;;;9.32;;
69912;SDS011;57198;52.082;5.108;2023-07-09T03:11:30;12.73;;;9.65;;
69912;SDS011;57198;52.082;5.108;2023-07-09T03:13:58;14.88;;;10.05;;
69912;SDS011;57198;52.082;5.108;2023-07-09T03:16:26;12.07;;;9.32;;
69912;SDS011;57198;52.082;5.108;2023-07-09T03:18:54;15.70;;;9.43;;
69912;SDS011;57198;52.082;5.108;2023-07-09T03:21:22;13.05;;;10.02;;
69912;SDS011;57198;52.082;5.108;2023-07-09T03:23:50;13.18;;;9.43;;
69912;SDS011;57198;52.082;5.108;2023-07-09T03:26:17;13.10;;;9.07;;
69912;SDS011;57198;52.082;5.108;2023-07-09T03:28:45;13.23;;;9.80;;
69912;SDS011;57198;52.082;5.108;2023-07-09T03:31:12;12.50;;;9.17;;
69912;SDS011;57198;52.082;5.108;2023-07-09T03:33:39;11.40;;;8.63;;
69912;SDS011;57198;52.082;5.108;2023-07-09T03:36:07;13.30;;;9.27;;
69912;SDS011;57198;52.082;5.108;2023-07-09T03:38:34;13.27;;;9.05;;
69912;SDS011;57198;52.082;5.108;2023-07-09T03:41:02;15.80;;;10.15;;
69912;SDS011;57198;52.082;5.108;2023-07-09T03:43:29;11.40;;;8.50;;
69912;SDS011;57198;52.082;5.108;2023-07-09T03:45:56;13.18;;;8.30;;
69912;SDS011;57198;52.082;5.108;2023-07-09T03:48:24;13.57;;;9.35;;
69912;SDS011;57198;52.082;5.108;2023-07-09T03:50:51;12.38;;;9.55;;
69912;SDS011;57198;52.082;5.108;2023-07-09T03:53:19;12.60;;;9.13;;
69912;SDS011;57198;52.082;5.108;2023-07-09T03:55:50;12.37;;;9.00;;
69912;SDS011;57198;52.082;5.108;2023-07-09T03:58:18;11.63;;;9.10;;
69912;SDS011;57198;52.082;5.108;2023-07-09T04:00:45;15.05;;;10.38;;
69912;SDS011;57198;52.082;5.108;2023-07-09T04:03:13;15.10;;;8.98;;
69912;SDS011;57198;52.082;5.108;2023-07-09T04:05:40;13.32;;;9.50;;
69912;SDS011;57198;52.082;5.108;2023-07-09T04:08:08;11.90;;;9.40;;
69912;SDS011;57198;52.082;5.108;2023-07-09T04:10:35;12.20;;;8.57;;
69912;SDS011;57198;52.082;5.108;2023-07-09T04:13:03;12.70;;;8.63;;
69912;SDS011;57198;52.082;5.108;2023-07-09T04:15:30;10.98;;;8.20;;
69912;SDS011;57198;52.082;5.108;2023-07-09T04:17:58;13.73;;;8.93;;
69912;SDS011;57198;52.082;5.108;2023-07-09T04:20:25;14.83;;;9.20;;
69912;SDS011;57198;52.082;5.108;2023-07-09T04:22:52;12.23;;;8.90;;
69912;SDS011;57198;52.082;5.108;2023-07-09T04:25:20;12.07;;;8.90;;
69912;SDS011;57198;52.082;5.108;2023-07-09T04:27:48;14.10;;;8.98;;
69912;SDS011;57198;52.082;5.108;2023-07-09T04:30:17;14.55;;;9.35;;
69912;SDS011;57198;52.082;5.108;2023-07-09T04:32:45;12.30;;;8.87;;
69912;SDS011;57198;52.082;5.108;2023-07-09T04:35:13;10.73;;;8.82;;
69912;SDS011;57198;52.082;5.108;2023-07-09T04:37:41;13.45;;;9.50;;
69912;SDS011;57198;52.082;5.108;2023-07-09T04:40:09;13.40;;;9.73;;
69912;SDS011;57198;52.082;5.108;2023-07-09T04:42:38;12.32;;;9.45;;
69912;SDS011;57198;52.082;5.108;2023-07-09T04:45:07;14.27;;;10.13;;
69912;SDS011;57198;52.082;5.108;2023-07-09T04:47:35;12.85;;;9.35;;
69912;SDS011;57198;52.082;5.108;2023-07-09T04:50:04;14.05;;;10.52;;
69912;SDS011;57198;52.082;5.108;2023-07-09T04:52:31;15.23;;;10.70;;
69912;SDS011;57198;52.082;5.108;2023-07-09T04:54:59;14.73;;;10.75;;
69912;SDS011;57198;52.082;5.108;2023-07-09T04:57:27;14.57;;;10.03;;
69912;SDS011;57198;52.082;5.108;2023-07-09T04:59:55;13.25;;;9.65;;
69912;SDS011;57198;52.082;5.108;2023-07-09T05:02:23;13.75;;;11.00;;
69912;SDS011;57198;52.082;5.108;2023-07-09T05:04:51;17.08;;;9.98;;
69912;SDS011;57198;52.082;5.108;2023-07-09T05:07:18;15.88;;;10.02;;
69912;SDS011;57198;52.082;5.108;2023-07-09T05:09:45;14.93;;;11.50;;
69912;SDS011;57198;52.082;5.108;2023-07-09T05:12:13;18.02;;;11.90;;
69912;SDS011;57198;52.082;5.108;2023-07-09T05:14:41;21.38;;;12.30;;
69912;SDS011;57198;52.082;5.108;2023-07-09T05:17:08;17.13;;;11.90;;
69912;SDS011;57198;52.082;5.108;2023-07-09T05:19:36;15.38;;;11.65;;
69912;SDS011;57198;52.082;5.108;2023-07-09T05:22:03;17.57;;;12.93;;
69912;SDS011;57198;52.082;5.108;2023-07-09T05:24:31;19.30;;;12.30;;
69912;SDS011;57198;52.082;5.108;2023-07-09T05:26:58;16.42;;;13.27;;
69912;SDS011;57198;52.082;5.108;2023-07-09T05:29:26;18.40;;;12.32;;
69912;SDS011;57198;52.082;5.108;2023-07-09T05:31:53;18.48;;;12.88;;
69912;SDS011;57198;52.082;5.108;2023-07-09T05:34:21;21.20;;;12.63;;
69912;SDS011;57198;52.082;5.108;2023-07-09T05:36:48;16.42;;;13.02;;
69912;SDS011;57198;52.082;5.108;2023-07-09T05:39:15;17.90;;;12.70;;
69912;SDS011;57198;52.082;5.108;2023-07-09T05:41:43;17.45;;;12.73;;
69912;SDS011;57198;52.082;5.108;2023-07-09T05:44:10;15.98;;;11.55;;
69912;SDS011;57198;52.082;5.108;2023-07-09T05:46:38;18.87;;;12.10;;
69912;SDS011;57198;52.082;5.108;2023-07-09T05:49:06;15.00;;;12.07;;
69912;SDS011;57198;52.082;5.108;2023-07-09T05:51:33;15.40;;;12.63;;
69912;SDS011;57198;52.082;5.108;2023-07-09T05:54:01;16.98;;;12.48;;
69912;SDS011;57198;52.082;5.108;2023-07-09T05:56:28;14.65;;;11.70;;
69912;SDS011;57198;52.082;5.108;2023-07-09T05:58:56;16.83;;;12.00;;
69912;SDS011;57198;52.082;5.108;2023-07-09T06:01:23;14.65;;;10.90;;
69912;SDS011;57198;52.082;5.108;2023-07-09T06:03:51;16.65;;;12.77;;
69912;SDS011;57198;52.082;5.108;2023-07-09T06:06:20;17.25;;;11.75;;
69912;SDS011;57198;52.082;5.108;2023-07-09T06:08:48;16.88;;;12.02;;
69912;SDS011;57198;52.082;5.108;2023-07-09T06:11:16;16.70;;;11.80;;
69912;SDS011;57198;52.082;5.108;2023-07-09T06:13:45;15.38;;;10.98;;
69912;SDS011;57198;52.082;5.108;2023-07-09T06:16:17;15.75;;;12.38;;
69912;SDS011;57198;52.082;5.108;2023-07-09T06:18:44;16.02;;;11.10;;
69912;SDS011;57198;52.082;5.108;2023-07-09T06:21:12;16.05;;;11.90;;
69912;SDS011;57198;52.082;5.108;2023-07-09T06:23:39;14.23;;;11.37;;
69912;SDS011;57198;52.082;5.108;2023-07-09T06:26:09;17.02;;;10.68;;
69912;SDS011;57198;52.082;5.108;2023-07-09T06:28:36;16.60;;;11.55;;
69912;SDS011;57198;52.082;5.108;2023-07-09T06:31:04;16.48;;;11.50;;
69912;SDS011;57198;52.082;5.108;2023-07-09T06:33:31;17.30;;;11.63;;
69912;SDS011;57198;52.082;5.108;2023-07-09T06:35:59;17.13;;;11.63;;
69912;SDS011;57198;52.082;5.108;2023-07-09T06:38:28;14.48;;;11.15;;
69912;SDS011;57198;52.082;5.108;2023-07-09T06:40:56;13.60;;;11.00;;
69912;SDS011;57198;52.082;5.108;2023-07-09T06:43:23;17.83;;;11.35;;
69912;SDS011;57198;52.082;5.108;2023-07-09T06:45:52;19.00;;;10.63;;
69912;SDS011;57198;52.082;5.108;2023-07-09T06:48:20;13.17;;;9.90;;
69912;SDS011;57198;52.082;5.108;2023-07-09T06:50:47;12.57;;;9.68;;
69912;SDS011;57198;52.082;5.108;2023-07-09T06:53:15;14.75;;;10.60;;
69912;SDS011;57198;52.082;5.108;2023-07-09T06:55:42;17.90;;;10.65;;
69912;SDS011;57198;52.082;5.108;2023-07-09T06:58:10;14.45;;;9.60;;
69912;SDS011;57198;52.082;5.108;2023-07-09T07:00:38;13.90;;;10.47;;
69912;SDS011;57198;52.082;5.108;2023-07-09T07:03:05;14.50;;;10.20;;
69912;SDS011;57198;52.082;5.108;2023-07-09T07:05:33;14.07;;;10.60;;
69912;SDS011;57198;52.082;5.108;2023-07-09T07:08:01;13.00;;;10.02;;
69912;SDS011;57198;52.082;5.108;2023-07-09T07:10:29;13.85;;;10.02;;
69912;SDS011;57198;52.082;5.108;2023-07-09T07:12:57;14.63;;;9.13;;
69912;SDS011;57198;52.082;5.108;2023-07-09T07:15:24;10.77;;;8.90;;
69912;SDS011;57198;52.082;5.108;2023-07-09T07:17:51;13.82;;;9.98;;
69912;SDS011;57198;52.082;5.108;2023-07-09T07:20:19;13.38;;;9.32;;
69912;SDS011;57198;52.082;5.108;2023-07-09T07:22:46;12.50;;;9.77;;
69912;SDS011;57198;52.082;5.108;2023-07-09T07:25:14;13.97;;;9.70;;
69912;SDS011;57198;52.082;5.108;2023-07-09T07:27:41;11.73;;;8.77;;
69912;SDS011;57198;52.082;5.108;2023-07-09T07:30:09;12.02;;;8.73;;
69912;SDS011;57198;52.082;5.108;2023-07-09T07:32:37;13.80;;;8.90;;
69912;SDS011;57198;52.082;5.108;2023-07-09T07:35:05;14.68;;;9.10;;
69912;SDS011;57198;52.082;5.108;2023-07-09T07:37:33;13.77;;;9.40;;
69912;SDS011;57198;52.082;5.108;2023-07-09T07:40:01;17.10;;;8.57;;
69912;SDS011;57198;52.082;5.108;2023-07-09T07:42:31;11.30;;;8.68;;
69912;SDS011;57198;52.082;5.108;2023-07-09T07:44:58;12.38;;;8.20;;
69912;SDS011;57198;52.082;5.108;2023-07-09T07:47:26;12.65;;;8.55;;
69912;SDS011;57198;52.082;5.108;2023-07-09T07:49:53;13.67;;;9.03;;
69912;SDS011;57198;52.082;5.108;2023-07-09T07:52:21;14.60;;;10.77;;
69912;SDS011;57198;52.082;5.108;2023-07-09T07:54:48;16.35;;;11.20;;
69912;SDS011;57198;52.082;5.108;2023-07-09T07:57:17;15.57;;;10.95;;
69912;SDS011;57198;52.082;5.108;2023-07-09T07:59:44;14.02;;;9.73;;
69912;SDS011;57198;52.082;5.108;2023-07-09T08:02:13;14.17;;;10.27;;
69912;SDS011;57198;52.082;5.108;2023-07-09T08:04:41;14.05;;;10.23;;
69912;SDS011;57198;52.082;5.108;2023-07-09T08:07:09;15.27;;;11.38;;
69912;SDS011;57198;52.082;5.108;2023-07-09T08:09:36;14.35;;;11.00;;
69912;SDS011;57198;52.082;5.108;2023-07-09T08:12:05;15.25;;;10.88;;
69912;SDS011;57198;52.082;5.108;2023-07-09T08:14:41;15.03;;;11.27;;
69912;SDS011;57198;52.082;5.108;2023-07-09T08:17:09;16.15;;;10.73;;
69912;SDS011;57198;52.082;5.108;2023-07-09T08:19:44;11.60;;;9.80;;
69912;SDS011;57198;52.082;5.108;2023-07-09T08:22:11;17.10;;;9.95;;
69912;SDS011;57198;52.082;5.108;2023-07-09T08:24:39;15.35;;;9.40;;
69912;SDS011;57198;52.082;5.108;2023-07-09T08:27:06;14.87;;;9.27;;
69912;SDS011;57198;52.082;5.108;2023-07-09T08:29:34;12.65;;;8.98;;
69912;SDS011;57198;52.082;5.108;2023-07-09T08:32:02;13.98;;;9.93;;
69912;SDS011;57198;52.082;5.108;2023-07-09T08:34:30;10.77;;;9.02;;
69912;SDS011;57198;52.082;5.108;2023-07-09T08:36:57;14.68;;;10.30;;
69912;SDS011;57198;52.082;5.108;2023-07-09T08:39:25;14.53;;;10.97;;
69912;SDS011;57198;52.082;5.108;2023-07-09T08:42:03;14.82;;;11.18;;
69912;SDS011;57198;52.082;5.108;2023-07-09T08:50:00;16.13;;;10.80;;
69912;SDS011;57198;52.082;5.108;2023-07-09T08:52:36;15.57;;;10.70;;
69912;SDS011;57198;52.082;5.108;2023-07-09T08:55:06;14.20;;;10.75;;
69912;SDS011;57198;52.082;5.108;2023-07-09T08:57:39;13.20;;;10.95;;
69912;SDS011;57198;52.082;5.108;2023-07-09T09:02:39;14.20;;;9.75;;
69912;SDS011;57198;52.082;5.108;2023-07-09T09:05:09;13.47;;;9.30;;
69912;SDS011;57198;52.082;5.108;2023-07-09T09:07:39;12.98;;;8.57;;
69912;SDS011;57198;52.082;5.108;2023-07-09T09:10:13;13.95;;;8.57;;
69912;SDS011;57198;52.082;5.108;2023-07-09T09:15:18;12.73;;;8.07;;
69912;SDS011;57198;52.082;5.108;2023-07-09T09:17:48;12.10;;;7.30;;
69912;SDS011;57198;52.082;5.108;2023-07-09T09:20:19;12.07;;;8.10;;
69912;SDS011;57198;52.082;5.108;2023-07-09T09:25:27;10.20;;;6.65;;
69912;SDS011;57198;52.082;5.108;2023-07-09T09:27:55;11.80;;;7.47;;
69912;SDS011;57198;52.082;5.108;2023-07-09T09:30:23;9.53;;;7.43;;
69912;SDS011;57198;52.082;5.108;2023-07-09T09:35:26;11.65;;;8.30;;
69912;SDS011;57198;52.082;5.108;2023-07-09T09:37:55;13.73;;;8.93;;
69912;SDS011;57198;52.082;5.108;2023-07-09T09:40:23;14.73;;;9.65;;
69912;SDS011;57198;52.082;5.108;2023-07-09T09:42:52;14.27;;;9.70;;
69912;SDS011;57198;52.082;5.108;2023-07-09T09:45:32;10.30;;;8.50;;
69912;SDS011;57198;52.082;5.108;2023-07-09T09:48:10;14.23;;;9.23;;
69912;SDS011;57198;52.082;5.108;2023-07-09T09:50:40;12.23;;;8.40;;
69912;SDS011;57198;52.082;5.108;2023-07-09T09:53:08;10.75;;;8.57;;
69912;SDS011;57198;52.082;5.108;2023-07-09T09:55:37;11.60;;;8.10;;
69912;SDS011;57198;52.082;5.108;2023-07-09T09:58:13;14.73;;;8.35;;
69912;SDS011;57198;52.082;5.108;2023-07-09T10:00:46;12.07;;;8.80;;
69912;SDS011;57198;52.082;5.108;2023-07-09T10:03:14;10.40;;;8.55;;
69912;SDS011;57198;52.082;5.108;2023-07-09T10:05:52;10.48;;;8.00;;
69912;SDS011;57198;52.082;5.108;2023-07-09T10:10:53;10.85;;;8.07;;
69912;SDS011;57198;52.082;5.108;2023-07-09T10:13:26;10.73;;;7.65;;
69912;SDS011;57198;52.082;5.108;2023-07-09T10:16:03;10.90;;;8.57;;
69912;SDS011;57198;52.082;5.108;2023-07-09T10:23:32;15.10;;;8.43;;
69912;SDS011;57198;52.082;5.108;2023-07-09T10:26:09;10.38;;;7.68;;
69912;SDS011;57198;52.082;5.108;2023-07-09T10:39:09;9.35;;;7.40;;
69912;SDS011;57198;52.082;5.108;2023-07-09T10:41:37;10.20;;;7.70;;
69912;SDS011;57198;52.082;5.108;2023-07-09T10:44:16;8.30;;;6.50;;
69912;SDS011;57198;52.082;5.108;2023-07-09T10:46:45;7.20;;;6.47;;
69912;SDS011;57198;52.082;5.108;2023-07-09T10:49:15;18.00;;;6.93;;
69912;SDS011;57198;52.082;5.108;2023-07-09T10:51:44;10.55;;;7.30;;
69912;SDS011;57198;52.082;5.108;2023-07-09T10:54:28;11.00;;;7.45;;
69912;SDS011;57198;52.082;5.108;2023-07-09T10:57:08;9.50;;;6.78;;
69912;SDS011;57198;52.082;5.108;2023-07-09T10:59:37;9.20;;;7.00;;
69912;SDS011;57198;52.082;5.108;2023-07-09T11:04:40;11.88;;;6.32;;
69912;SDS011;57198;52.082;5.108;2023-07-09T11:07:11;8.57;;;6.03;;
69912;SDS011;57198;52.082;5.108;2023-07-09T11:09:43;8.63;;;6.13;;
69912;SDS011;57198;52.082;5.108;2023-07-09T11:12:13;8.83;;;6.17;;
69912;SDS011;57198;52.082;5.108;2023-07-09T11:14:45;7.93;;;6.40;;
69912;SDS011;57198;52.082;5.108;2023-07-09T11:17:15;7.03;;;6.32;;
69912;SDS011;57198;52.082;5.108;2023-07-09T11:19:45;8.70;;;5.75;;
69912;SDS011;57198;52.082;5.108;2023-07-09T11:25:14;10.20;;;6.50;;
69912;SDS011;57198;52.082;5.108;2023-07-09T11:27:49;9.27;;;6.95;;
69912;SDS011;57198;52.082;5.108;2023-07-09T11:30:18;8.02;;;6.85;;
69912;SDS011;57198;52.082;5.108;2023-07-09T11:32:47;11.27;;;7.40;;
69912;SDS011;57198;52.082;5.108;2023-07-09T11:35:21;9.98;;;7.32;;
69912;SDS011;57198;52.082;5.108;2023-07-09T11:37:48;8.87;;;6.97;;
69912;SDS011;57198;52.082;5.108;2023-07-09T11:40:16;9.52;;;6.88;;
69912;SDS011;57198;52.082;5.108;2023-07-09T11:42:50;9.82;;;7.00;;
69912;SDS011;57198;52.082;5.108;2023-07-09T11:45:28;10.18;;;7.15;;
69912;SDS011;57198;52.082;5.108;2023-07-09T11:48:00;8.00;;;6.07;;
69912;SDS011;57198;52.082;5.108;2023-07-09T11:50:41;7.17;;;6.37;;
69912;SDS011;57198;52.082;5.108;2023-07-09T11:55:57;8.93;;;6.03;;
69912;SDS011;57198;52.082;5.108;2023-07-09T11:58:25;9.52;;;4.93;;
69912;SDS011;57198;52.082;5.108;2023-07-09T12:00:57;6.95;;;4.43;;
69912;SDS011;57198;52.082;5.108;2023-07-09T12:03:26;4.53;;;3.60;;
69912;SDS011;57198;52.082;5.108;2023-07-09T12:05:55;7.38;;;3.70;;
69912;SDS011;57198;52.082;5.108;2023-07-09T12:08:42;6.00;;;4.10;;
69912;SDS011;57198;52.082;5.108;2023-07-09T12:11:26;4.43;;;3.70;;
69912;SDS011;57198;52.082;5.108;2023-07-09T12:13:54;5.20;;;3.95;;
69912;SDS011;57198;52.082;5.108;2023-07-09T12:16:33;7.97;;;4.50;;
69912;SDS011;57198;52.082;5.108;2023-07-09T12:19:01;4.93;;;3.45;;
69912;SDS011;57198;52.082;5.108;2023-07-09T12:21:29;5.20;;;3.63;;
69912;SDS011;57198;52.082;5.108;2023-07-09T12:23:57;7.13;;;3.92;;
69912;SDS011;57198;52.082;5.108;2023-07-09T12:26:25;7.60;;;3.75;;
69912;SDS011;57198;52.082;5.108;2023-07-09T12:28:53;7.47;;;3.77;;
69912;SDS011;57198;52.082;5.108;2023-07-09T12:31:29;5.53;;;3.90;;
69912;SDS011;57198;52.082;5.108;2023-07-09T12:33:58;8.23;;;4.53;;
69912;SDS011;57198;52.082;5.108;2023-07-09T12:36:26;4.35;;;3.30;;
69912;SDS011;57198;52.082;5.108;2023-07-09T12:39:00;6.63;;;3.50;;
69912;SDS011;57198;52.082;5.108;2023-07-09T12:41:32;9.50;;;4.27;;
69912;SDS011;57198;52.082;5.108;2023-07-09T12:44:02;5.90;;;4.13;;
69912;SDS011;57198;52.082;5.108;2023-07-09T12:46:30;6.28;;;3.92;;
69912;SDS011;57198;52.082;5.108;2023-07-09T12:48:58;6.18;;;4.00;;
69912;SDS011;57198;52.082;5.108;2023-07-09T12:51:28;9.32;;;4.22;;
69912;SDS011;57198;52.082;5.108;2023-07-09T12:54:16;7.03;;;4.00;;
69912;SDS011;57198;52.082;5.108;2023-07-09T12:56:44;7.13;;;4.75;;
69912;SDS011;57198;52.082;5.108;2023-07-09T12:59:20;5.03;;;3.63;;
69912;SDS011;57198;52.082;5.108;2023-07-09T13:02:37;10.48;;;5.10;;
69912;SDS011;57198;52.082;5.108;2023-07-09T13:04:38;5.10;;;4.13;;
69912;SDS011;57198;52.082;5.108;2023-07-09T13:12:34;5.82;;;3.88;;
69912;SDS011;57198;52.082;5.108;2023-07-09T13:15:01;6.20;;;2.10;;
69912;SDS011;57198;52.082;5.108;2023-07-09T13:17:30;4.60;;;2.08;;
69912;SDS011;57198;52.082;5.108;2023-07-09T13:19:58;4.97;;;1.90;;
69912;SDS011;57198;52.082;5.108;2023-07-09T13:22:27;5.30;;;1.80;;
69912;SDS011;57198;52.082;5.108;2023-07-09T13:24:55;5.65;;;2.03;;
69912;SDS011;57198;52.082;5.108;2023-07-09T13:27:23;3.45;;;1.85;;
69912;SDS011;57198;52.082;5.108;2023-07-09T13:29:50;4.63;;;2.10;;
69912;SDS011;57198;52.082;5.108;2023-07-09T13:32:18;5.23;;;2.40;;
69912;SDS011;57198;52.082;5.108;2023-07-09T13:34:45;9.60;;;2.90;;
69912;SDS011;57198;52.082;5.108;2023-07-09T13:37:15;7.60;;;3.20;;
69912;SDS011;57198;52.082;5.108;2023-07-09T13:39:42;5.25;;;2.47;;
69912;SDS011;57198;52.082;5.108;2023-07-09T13:42:12;5.22;;;2.60;;
69912;SDS011;57198;52.082;5.108;2023-07-09T13:44:41;5.13;;;2.50;;
69912;SDS011;57198;52.082;5.108;2023-07-09T13:47:16;7.07;;;2.75;;
69912;SDS011;57198;52.082;5.108;2023-07-09T13:49:45;6.70;;;2.17;;
69912;SDS011;57198;52.082;5.108;2023-07-09T13:52:17;10.88;;;3.42;;
69912;SDS011;57198;52.082;5.108;2023-07-09T13:54:45;5.72;;;3.00;;
69912;SDS011;57198;52.082;5.108;2023-07-09T13:57:17;5.40;;;2.63;;
69912;SDS011;57198;52.082;5.108;2023-07-09T13:59:45;6.88;;;2.88;;
69912;SDS011;57198;52.082;5.108;2023-07-09T14:02:19;6.22;;;3.20;;
69912;SDS011;57198;52.082;5.108;2023-07-09T14:04:47;6.65;;;2.58;;
69912;SDS011;57198;52.082;5.108;2023-07-09T14:07:24;5.03;;;2.97;;
69912;SDS011;57198;52.082;5.108;2023-07-09T14:09:52;6.83;;;3.77;;
69912;SDS011;57198;52.082;5.108;2023-07-09T14:12:20;6.13;;;2.80;;
69912;SDS011;57198;52.082;5.108;2023-07-09T14:14:49;6.43;;;2.70;;
69912;SDS011;57198;52.082;5.108;2023-07-09T14:17:17;6.82;;;2.95;;
69912;SDS011;57198;52.082;5.108;2023-07-09T14:19:46;7.30;;;3.78;;
69912;SDS011;57198;52.082;5.108;2023-07-09T14:24:47;8.45;;;3.15;;
69912;SDS011;57198;52.082;5.108;2023-07-09T14:27:14;6.95;;;3.55;;
69912;SDS011;57198;52.082;5.108;2023-07-09T14:29:42;8.45;;;3.40;;
69912;SDS011;57198;52.082;5.108;2023-07-09T14:32:52;13.05;;;3.50;;
69912;SDS011;57198;52.082;5.108;2023-07-09T14:35:01;8.03;;;3.40;;
69912;SDS011;57198;52.082;5.108;2023-07-09T14:37:28;7.90;;;3.30;;
69912;SDS011;57198;52.082;5.108;2023-07-09T14:39:56;13.48;;;3.65;;
69912;SDS011;57198;52.082;5.108;2023-07-09T14:42:23;13.02;;;4.10;;
69912;SDS011;57198;52.082;5.108;2023-07-09T14:44:51;13.30;;;4.68;;
69912;SDS011;57198;52.082;5.108;2023-07-09T14:47:19;20.17;;;6.63;;
69912;SDS011;57198;52.082;5.108;2023-07-09T14:49:47;22.67;;;7.90;;
69912;SDS011;57198;52.082;5.108;2023-07-09T14:52:15;17.02;;;7.07;;
69912;SDS011;57198;52.082;5.108;2023-07-09T14:54:48;20.90;;;7.43;;
69912;SDS011;57198;52.082;5.108;2023-07-09T14:57:18;17.92;;;8.45;;
69912;SDS011;57198;52.082;5.108;2023-07-09T14:59:49;19.77;;;8.30;;
69912;SDS011;57198;52.082;5.108;2023-07-09T15:02:37;15.70;;;8.27;;
69912;SDS011;57198;52.082;5.108;2023-07-09T15:05:06;16.60;;;9.30;;
69912;SDS011;57198;52.082;5.108;2023-07-09T15:07:37;17.63;;;8.02;;
69912;SDS011;57198;52.082;5.108;2023-07-09T15:10:05;11.23;;;6.40;;
69912;SDS011;57198;52.082;5.108;2023-07-09T15:12:35;16.60;;;8.40;;
69912;SDS011;57198;52.082;5.108;2023-07-09T15:15:13;9.95;;;6.68;;
69912;SDS011;57198;52.082;5.108;2023-07-09T15:17:42;14.27;;;6.97;;
69912;SDS011;57198;52.082;5.108;2023-07-09T15:20:19;8.63;;;6.15;;
69912;SDS011;57198;52.082;5.108;2023-07-09T15:22:48;7.82;;;4.55;;
69912;SDS011;57198;52.082;5.108;2023-07-09T15:25:27;8.63;;;4.47;;
69912;SDS011;57198;52.082;5.108;2023-07-09T15:27:54;8.25;;;4.80;;
69912;SDS011;57198;52.082;5.108;2023-07-09T15:30:28;7.35;;;4.40;;
69912;SDS011;57198;52.082;5.108;2023-07-09T15:32:56;8.13;;;4.43;;
69912;SDS011;57198;52.082;5.108;2023-07-09T15:35:34;10.95;;;7.95;;
69912;SDS011;57198;52.082;5.108;2023-07-09T15:40:45;6.53;;;3.88;;
69912;SDS011;57198;52.082;5.108;2023-07-09T15:43:15;6.95;;;4.18;;
69912;SDS011;57198;52.082;5.108;2023-07-09T15:45:46;4.43;;;3.03;;